Time;durP1;ratioP1;P1;durP2;ratioP2;P2;SDS_P1;SDS_P2;PMS_P1;PMS_P2;Temp;Humidity;BMP_temperature;BMP_pressure;BME280_temperature;BME280_humidity;BME280_pressure;Samples;Min_cycle;Max_cycle;Signal;HPM_P1;HPM_P2
2023/06/20 00:01:59;;;;;;;2.90;2.50;;;;;;;21.94;69.77;100001.06;6292370;28;20044;-70
2023/06/20 00:05:02;;;;;;;3.30;2.47;;;;;;;21.99;70.25;99997.88;6291535;28;20056;-70
2023/06/20 00:08:04;;;;;;;3.72;2.45;;;;;;;21.92;72.87;99995.06;6290279;28;20053;-70
2023/06/20 00:11:04;;;;;;;2.47;2.25;;;;;;;21.86;72.74;99995.75;6290734;28;20048;-70
2023/06/20 00:14:05;;;;;;;3.10;2.43;;;;;;;21.89;71.35;99990.94;6292706;28;20470;-70
2023/06/20 00:17:06;;;;;;;3.20;2.53;;;;;;;21.88;71.46;99991.91;6295334;28;20060;-70
2023/06/20 00:20:10;;;;;;;3.13;2.60;;;;;;;21.90;72.86;99981.13;6296071;28;20551;-70
2023/06/20 00:23:11;;;;;;;3.95;2.75;;;;;;;21.96;73.69;99987.59;6293673;28;20405;-70
2023/06/20 00:26:12;;;;;;;4.93;3.13;;;;;;;21.88;75.62;99983.13;6293223;28;20045;-70
2023/06/20 00:29:13;;;;;;;3.00;2.67;;;;;;;21.70;76.81;99986.81;6291770;28;20091;-70
2023/06/20 00:32:16;;;;;;;3.53;2.70;;;;;;;21.73;77.21;99981.16;6290304;28;20095;-71
2023/06/20 00:35:16;;;;;;;3.80;2.97;;;;;;;21.78;79.32;99979.81;6295048;28;20049;-71
2023/06/20 00:38:17;;;;;;;2.40;2.20;;;;;;;21.65;80.67;99973.19;6296914;28;20040;-70
2023/06/20 00:41:23;;;;;;;3.37;2.50;;;;;;;21.49;81.17;99981.16;6296654;28;20049;-70
2023/06/20 00:44:24;;;;;;;3.53;2.72;;;;;;;21.53;80.75;99979.84;6295205;28;20493;-70
2023/06/20 00:47:25;;;;;;;5.10;3.00;;;;;;;21.40;81.96;99982.16;6296645;28;20045;-70
2023/06/20 00:50:28;;;;;;;4.03;2.83;;;;;;;21.36;82.70;99973.69;6296245;28;20585;-69
2023/06/20 00:53:29;;;;;;;3.30;2.50;;;;;;;21.32;82.25;99970.53;6294924;28;20056;-70
2023/06/20 00:56:30;;;;;;;3.47;2.70;;;;;;;21.26;83.17;99973.00;6294136;28;21052;-70
2023/06/20 00:59:30;;;;;;;3.83;2.78;;;;;;;21.24;84.05;99973.16;6294977;28;20059;-70
2023/06/20 01:02:33;;;;;;;5.00;2.83;;;;;;;21.17;87.37;99972.19;6287249;28;20048;-70
2023/06/20 01:05:35;;;;;;;3.45;2.38;;;;;;;20.98;86.85;99953.91;6289773;28;20077;-70
2023/06/20 01:09:05;;;;;;;3.92;2.53;;;;;;;20.85;85.58;99963.16;6293151;28;20521;-70
2023/06/20 01:12:29;;;;;;;5.13;2.80;;;;;;;20.85;83.56;99960.50;6288300;28;20052;-70
2023/06/20 01:15:42;;;;;;;4.25;2.83;;;;;;;20.70;83.23;99962.97;6287527;28;20052;-70
2023/06/20 01:19:01;;;;;;;4.13;2.50;;;;;;;20.73;82.68;99967.09;6292025;28;20070;-70
2023/06/20 01:22:07;;;;;;;3.83;2.75;;;;;;;20.77;82.15;99955.19;6293262;28;20052;-70
2023/06/20 01:25:53;;;;;;;2.80;2.35;;;;;;;20.72;86.00;99962.81;6279726;28;20174;-71
2023/06/20 01:29:00;;;;;;;4.97;2.90;;;;;;;20.81;83.85;99959.16;6287133;28;20051;-71
2023/06/20 01:32:06;;;;;;;5.20;3.00;;;;;;;20.75;83.01;99959.00;6294305;28;20063;-70
2023/06/20 01:35:11;;;;;;;3.38;2.58;;;;;;;20.90;81.62;99957.41;6287266;28;20047;-70
2023/06/20 01:38:14;;;;;;;2.80;2.40;;;;;;;20.72;82.00;99960.97;6289815;28;20040;-70
2023/06/20 01:41:20;;;;;;;4.25;2.85;;;;;;;20.77;82.48;99965.78;6290677;28;20056;-70
2023/06/20 01:44:22;;;;;;;3.53;2.45;;;;;;;20.59;83.64;99965.94;6292356;28;20087;-70
2023/06/20 01:47:24;;;;;;;4.60;3.00;;;;;;;20.52;83.65;99962.22;6287144;28;20049;-70
2023/06/20 01:50:29;;;;;;;3.28;2.60;;;;;;;20.46;84.51;99965.50;6294272;28;20802;-70
2023/06/20 01:53:34;;;;;;;5.80;2.58;;;;;;;20.44;85.55;99968.31;6281507;28;20499;-71
2023/06/20 01:56:36;;;;;;;3.53;2.40;;;;;;;20.59;85.32;99971.22;6287908;28;20043;-70
2023/06/20 01:59:36;;;;;;;;;;;;;;;20.51;86.56;99972.00;6288602;28;20053;-70
2023/06/20 02:02:38;;;;;;;3.80;2.60;;;;;;;20.47;87.73;99970.66;6288023;28;19924;-70
2023/06/20 02:05:44;;;;;;;3.00;2.28;;;;;;;20.50;88.03;99974.78;6284039;28;20048;-69
2023/06/20 02:08:45;;;;;;;4.53;3.20;;;;;;;20.54;86.90;99976.13;6288064;28;20099;-70
2023/06/20 02:11:47;;;;;;;4.97;2.78;;;;;;;20.46;86.09;99973.44;6290440;28;20063;-70
2023/06/20 02:14:51;;;;;;;5.43;2.80;;;;;;;20.48;88.13;99971.47;6287433;28;20075;-70
2023/06/20 02:17:53;;;;;;;3.50;2.53;;;;;;;20.48;89.00;99976.78;6291841;28;20144;-70
2023/06/20 02:20:54;;;;;;;;;;;;;;;20.45;88.42;99983.22;6288915;28;20396;-69
2023/06/20 02:23:58;;;;;;;4.03;2.70;;;;;;;20.29;88.70;99983.16;6285837;28;20281;-70
2023/06/20 02:27:02;;;;;;;2.95;2.63;;;;;;;20.38;86.68;99990.13;6288486;28;20052;-70
2023/06/20 02:30:06;;;;;;;4.05;2.85;;;;;;;20.29;86.22;99999.88;6289900;28;20052;-70
2023/06/20 02:33:10;;;;;;;5.25;2.95;;;;;;;20.27;86.94;99985.13;6288242;28;20079;-69
2023/06/20 02:36:12;;;;;;;3.40;2.67;;;;;;;20.26;87.18;99992.25;6281759;28;20037;-69
2023/06/20 02:39:13;;;;;;;3.80;2.63;;;;;;;20.32;87.11;99998.72;6286301;28;20041;-70
2023/06/20 02:42:14;;;;;;;6.70;3.30;;;;;;;20.31;86.33;99986.47;6287445;28;20059;-69
2023/06/20 02:45:15;;;;;;;4.43;2.97;;;;;;;20.16;86.46;99986.22;6283929;28;20399;-69
2023/06/20 02:48:46;;;;;;;5.70;2.77;;;;;;;20.18;86.81;99992.22;6288115;28;20401;-69
2023/06/20 02:52:12;;;;;;;3.47;2.78;;;;;;;19.97;87.47;99992.56;6285943;28;20053;-70
2023/06/20 02:55:34;;;;;;;3.60;2.83;;;;;;;19.96;89.58;99995.38;6275037;28;20056;-70
2023/06/20 02:58:40;;;;;;;8.02;2.90;;;;;;;19.75;91.84;100007.16;6286405;28;20544;-70
2023/06/20 03:01:46;;;;;;;5.60;2.65;;;;;;;19.73;92.08;100012.59;6286570;28;20060;-70
2023/06/20 03:04:56;;;;;;;3.63;3.08;;;;;;;19.70;90.58;99999.66;6289825;28;20044;-70
2023/06/20 03:07:59;;;;;;;5.10;3.22;;;;;;;19.67;91.33;100009.72;6288634;28;20063;-70
2023/06/20 03:11:00;;;;;;;3.72;2.85;;;;;;;19.61;91.94;100007.66;6284618;28;20460;-70
2023/06/20 03:14:05;;;;;;;4.80;3.20;;;;;;;19.54;92.29;100015.41;6293064;28;20150;-70
2023/06/20 03:17:06;;;;;;;4.72;2.88;;;;;;;19.50;93.11;100006.09;6287214;28;20056;-70
2023/06/20 03:20:09;;;;;;;3.87;2.90;;;;;;;19.53;92.97;100006.59;6291220;28;20139;-70
2023/06/20 03:23:10;;;;;;;13.23;3.20;;;;;;;19.54;92.18;100010.09;6292959;28;20258;-70
2023/06/20 03:26:10;;;;;;;4.23;2.87;;;;;;;19.60;92.36;100011.28;6291581;28;20471;-70
2023/06/20 03:29:11;;;;;;;4.10;3.17;;;;;;;19.55;92.72;100011.75;6288958;28;20060;-70
2023/06/20 03:32:12;;;;;;;4.17;3.00;;;;;;;19.51;92.14;100015.69;6290090;28;20052;-70
2023/06/20 03:35:13;;;;;;;6.43;3.50;;;;;;;19.48;92.36;100014.19;6284947;28;20072;-70
2023/06/20 03:38:13;;;;;;;5.00;3.30;;;;;;;19.60;92.23;100013.94;6287362;28;20075;-70
2023/06/20 03:41:14;;;;;;;5.32;3.50;;;;;;;19.62;92.46;100018.13;6282310;28;20040;-70
2023/06/20 03:44:15;;;;;;;4.90;3.00;;;;;;;19.61;92.94;100018.25;6281695;28;20056;-70
2023/06/20 03:47:15;;;;;;;5.03;2.90;;;;;;;19.66;92.44;100018.63;6288913;28;20384;-70
2023/06/20 03:50:16;;;;;;;4.87;3.40;;;;;;;19.78;91.59;100022.72;6290070;28;20059;-70
2023/06/20 03:53:17;;;;;;;5.60;3.27;;;;;;;19.80;91.39;100027.88;6285224;28;20471;-70
2023/06/20 03:56:18;;;;;;;3.83;2.73;;;;;;;19.72;91.07;100031.28;6289371;28;20055;-70
2023/06/20 03:59:18;;;;;;;3.50;2.97;;;;;;;19.68;89.00;100035.19;6295119;28;20094;-70
2023/06/20 04:02:19;;;;;;;7.78;3.38;;;;;;;19.69;89.44;100031.56;6283386;28;20041;-70
2023/06/20 04:05:20;;;;;;;5.07;3.27;;;;;;;19.69;87.75;100034.22;6292081;28;20045;-70
2023/06/20 04:08:21;;;;;;;4.03;3.13;;;;;;;19.80;87.84;100030.50;6294133;28;20171;-70
2023/06/20 04:11:21;;;;;;;6.53;3.47;;;;;;;19.86;89.74;100038.66;6289644;28;20102;-69
2023/06/20 04:14:22;;;;;;;5.27;3.30;;;;;;;20.00;88.47;100044.41;6283764;28;20075;-71
2023/06/20 04:17:23;;;;;;;4.30;3.07;;;;;;;20.05;87.05;100037.63;6290089;28;20044;-70
2023/06/20 04:20:24;;;;;;;3.87;2.87;;;;;;;20.26;85.84;100042.59;6287640;28;20053;-70
2023/06/20 04:23:27;;;;;;;3.60;3.00;;;;;;;20.31;85.56;100047.41;6287254;28;20060;-70
2023/06/20 04:26:29;;;;;;;7.95;3.15;;;;;;;20.38;85.06;100044.97;6285130;28;20044;-70
2023/06/20 04:29:32;;;;;;;4.22;3.30;;;;;;;20.45;86.53;100048.66;6288479;28;20044;-70
2023/06/20 04:32:33;;;;;;;4.78;3.00;;;;;;;20.48;85.80;100054.44;6292907;28;20391;-70
2023/06/20 04:35:36;;;;;;;7.18;3.28;;;;;;;20.59;84.83;100056.03;6284890;28;20041;-70
2023/06/20 04:38:37;;;;;;;5.60;3.42;;;;;;;20.53;84.29;100059.31;6290031;28;20454;-70
2023/06/20 04:41:37;;;;;;;7.73;2.90;;;;;;;20.63;83.68;100056.53;6292028;28;20048;-70
2023/06/20 04:44:38;;;;;;;4.13;3.10;;;;;;;20.60;83.48;100064.81;6290379;28;20045;-70
2023/06/20 04:47:41;;;;;;;4.50;3.20;;;;;;;20.79;82.55;100061.91;6288494;28;20052;-70
2023/06/20 04:50:42;;;;;;;3.75;2.92;;;;;;;20.85;83.42;100063.09;6290294;28;20063;-70
2023/06/20 04:53:43;;;;;;;9.63;3.07;;;;;;;20.91;82.55;100065.94;6288813;28;20052;-70
2023/06/20 04:56:43;;;;;;;4.83;2.93;;;;;;;20.98;83.52;100065.28;6286378;28;20059;-70
2023/06/20 04:59:46;;;;;;;3.53;2.87;;;;;;;20.96;80.92;100062.81;6286112;28;20507;-70
2023/06/20 05:02:49;;;;;;;4.63;3.10;;;;;;;20.92;79.94;100064.13;6291595;28;20059;-71
2023/06/20 05:05:50;;;;;;;3.85;2.67;;;;;;;20.96;79.11;100068.13;6293326;28;20415;-70
2023/06/20 05:08:53;;;;;;;3.80;2.87;;;;;;;21.07;80.95;100080.25;6295870;28;20056;-70
2023/06/20 05:11:54;;;;;;;4.28;2.72;;;;;;;21.15;82.51;100082.94;6291423;28;20415;-70
2023/06/20 05:14:55;;;;;;;3.10;2.60;;;;;;;21.27;80.09;100073.69;6280895;28;20060;-70
2023/06/20 05:17:58;;;;;;;4.00;2.97;;;;;;;21.33;82.07;100074.84;6295947;28;20060;-70
2023/06/20 05:20:59;;;;;;;4.28;2.58;;;;;;;21.46;81.40;100074.41;6287131;28;20055;-71
2023/06/20 05:24:00;;;;;;;3.92;2.90;;;;;;;21.58;79.68;100070.44;6294238;28;20055;-70
2023/06/20 05:27:01;;;;;;;4.70;2.73;;;;;;;21.60;77.88;100079.09;6291726;28;20131;-70
2023/06/20 05:30:02;;;;;;;9.03;3.30;;;;;;;21.71;77.55;100072.63;6288456;28;20072;-70
2023/06/20 05:33:02;;;;;;;5.37;3.10;;;;;;;21.87;77.79;100082.41;6292774;28;20435;-70
2023/06/20 05:36:04;;;;;;;5.07;3.20;;;;;;;22.00;74.57;100084.56;6291637;28;20406;-70
2023/06/20 05:39:07;;;;;;;;;;;;;;;22.17;74.25;100086.19;6289693;28;20102;-70
2023/06/20 05:42:09;;;;;;;3.90;2.90;;;;;;;22.29;76.01;100079.56;6290545;28;20377;-70
2023/06/20 05:45:10;;;;;;;7.37;3.40;;;;;;;22.39;73.75;100079.38;6293944;28;20041;-70
2023/06/20 05:48:11;;;;;;;5.93;3.30;;;;;;;22.49;74.76;100082.69;6292284;28;20044;-70
2023/06/20 05:51:13;;;;;;;4.63;2.90;;;;;;;22.62;74.90;100081.31;6293843;28;20273;-70
2023/06/20 05:54:14;;;;;;;6.60;2.80;;;;;;;22.71;74.62;100081.13;6293121;28;20402;-71
2023/06/20 05:57:15;;;;;;;3.10;2.43;;;;;;;22.78;70.65;100094.56;6291988;28;20131;-70
2023/06/20 06:00:16;;;;;;;4.33;2.60;;;;;;;22.91;70.63;100092.16;6291150;28;20047;-70
2023/06/20 06:03:18;;;;;;;4.10;3.10;;;;;;;23.11;68.39;100097.94;6291557;28;20082;-70
2023/06/20 06:06:19;;;;;;;7.97;3.00;;;;;;;23.30;68.25;100103.81;6291895;28;20079;-70
2023/06/20 06:09:20;;;;;;;4.87;2.60;;;;;;;23.42;67.53;100102.41;6293100;28;20048;-70
2023/06/20 06:12:21;;;;;;;5.90;3.03;;;;;;;23.62;67.47;100099.31;6291782;28;20045;-71
2023/06/20 06:15:22;;;;;;;4.15;3.03;;;;;;;23.79;70.04;100100.88;6289637;28;20084;-71
2023/06/20 06:18:23;;;;;;;4.20;3.13;;;;;;;23.85;67.06;100096.66;6293059;28;20054;-71
2023/06/20 06:21:25;;;;;;;4.77;3.57;;;;;;;24.12;65.94;100095.25;6291432;28;20265;-71
2023/06/20 06:24:26;;;;;;;5.18;2.92;;;;;;;24.32;69.22;100104.41;6293007;28;20056;-71
2023/06/20 06:27:26;;;;;;;6.30;3.30;;;;;;;24.59;64.12;100102.16;6291648;28;20044;-70
2023/06/20 06:30:27;;;;;;;3.03;2.73;;;;;;;24.80;63.44;100103.25;6292407;28;20048;-70
2023/06/20 06:33:29;;;;;;;5.63;3.17;;;;;;;24.92;60.33;100101.78;6291534;28;20123;-70
2023/06/20 06:36:33;;;;;;;2.95;2.60;;;;;;;25.06;62.98;100105.41;6292067;28;20285;-71
2023/06/20 06:39:36;;;;;;;3.63;2.67;;;;;;;24.96;59.08;100107.53;6292635;28;20083;-71
2023/06/20 06:42:37;;;;;;;4.97;2.67;;;;;;;25.30;58.62;100096.28;6292462;28;20097;-71
2023/06/20 06:45:38;;;;;;;3.85;2.75;;;;;;;25.36;61.51;100097.38;6292945;28;20135;-71
2023/06/20 06:48:39;;;;;;;3.78;2.83;;;;;;;25.54;59.23;100095.91;6291572;28;20061;-70
2023/06/20 06:51:40;;;;;;;5.80;2.50;;;;;;;25.50;58.38;100096.50;6292830;28;20048;-70
2023/06/20 06:54:41;;;;;;;4.10;2.67;;;;;;;25.73;59.98;100091.78;6280659;28;20518;-71
2023/06/20 06:57:42;;;;;;;3.70;2.63;;;;;;;25.92;58.62;100100.19;6288338;28;20052;-71
2023/06/20 07:00:43;;;;;;;3.93;2.67;;;;;;;26.00;57.54;100101.91;6290452;28;20278;-71
2023/06/20 07:03:44;;;;;;;2.75;2.33;;;;;;;26.34;60.13;100104.63;6266525;28;20505;-70
2023/06/20 07:06:44;;;;;;;2.97;2.30;;;;;;;26.34;54.49;100093.13;6266759;28;20240;-70
2023/06/20 07:09:45;;;;;;;2.90;2.33;;;;;;;26.54;55.52;100104.78;6267393;28;20053;-70
2023/06/20 07:12:46;;;;;;;2.90;2.25;;;;;;;26.67;54.65;100097.88;6267410;28;20064;-71
2023/06/20 07:15:47;;;;;;;2.63;2.13;;;;;;;26.72;56.14;100096.25;6267601;28;20053;-70
2023/06/20 07:18:48;;;;;;;4.15;2.50;;;;;;;26.69;57.51;100099.31;6288610;28;20293;-71
2023/06/20 07:21:49;;;;;;;4.22;2.90;;;;;;;26.73;56.08;100097.91;6288262;28;20053;-71
2023/06/20 07:24:50;;;;;;;2.95;2.28;;;;;;;27.03;53.24;100107.50;6279852;28;20053;-71
2023/06/20 07:27:50;;;;;;;5.93;3.10;;;;;;;27.04;54.59;100115.34;6267423;28;20174;-70
2023/06/20 07:30:51;;;;;;;4.40;2.70;;;;;;;26.90;53.23;100113.63;6266294;28;20057;-71
2023/06/20 07:33:52;;;;;;;2.83;2.47;;;;;;;27.10;52.37;100113.72;6266236;28;20072;-71
2023/06/20 07:36:53;;;;;;;3.95;2.83;;;;;;;27.36;53.29;100114.84;6268330;28;20045;-71
2023/06/20 07:39:54;;;;;;;4.07;2.60;;;;;;;27.68;51.54;100116.78;6286399;28;20106;-70
2023/06/20 07:42:54;;;;;;;5.75;2.35;;;;;;;27.47;53.12;100122.31;6282579;28;20529;-71
2023/06/20 07:45:55;;;;;;;3.40;2.60;;;;;;;27.84;54.02;100128.13;6279502;28;20124;-71
2023/06/20 07:48:56;;;;;;;3.83;2.58;;;;;;;27.94;51.69;100133.94;6290679;28;20048;-70
2023/06/20 07:51:57;;;;;;;3.03;2.53;;;;;;;28.33;50.06;100132.28;6284885;28;20060;-71
2023/06/20 07:54:58;;;;;;;2.95;2.50;;;;;;;28.33;48.43;100137.66;6283885;28;20045;-71
2023/06/20 07:57:58;;;;;;;2.47;2.28;;;;;;;28.51;46.49;100137.03;6266954;28;20053;-71
2023/06/20 08:01:00;;;;;;;2.80;2.25;;;;;;;28.24;49.16;100136.22;6273159;28;20127;-71
2023/06/20 08:04:00;;;;;;;4.70;2.65;;;;;;;28.29;51.30;100131.91;6291991;28;20052;-71
2023/06/20 08:07:01;;;;;;;3.42;2.60;;;;;;;28.24;49.37;100142.41;6287585;28;20122;-71
2023/06/20 08:10:03;;;;;;;3.17;2.50;;;;;;;28.56;48.82;100145.31;6275779;28;20135;-71
2023/06/20 08:13:04;;;;;;;4.30;2.72;;;;;;;28.69;49.66;100139.06;6282668;28;20053;-71
2023/06/20 08:16:05;;;;;;;5.00;2.25;;;;;;;28.86;47.25;100147.50;6283262;28;20402;-71
2023/06/20 08:19:06;;;;;;;2.72;2.10;;;;;;;28.95;47.20;100148.91;6270498;28;20137;-71
2023/06/20 08:22:07;;;;;;;3.70;2.40;;;;;;;29.13;46.55;100154.44;6278441;28;20056;-71
2023/06/20 08:25:08;;;;;;;3.25;2.35;;;;;;;29.13;46.64;100145.56;6270304;28;20876;-71
2023/06/20 08:28:09;;;;;;;3.80;2.40;;;;;;;29.22;47.88;100143.44;6264088;28;20414;-71
2023/06/20 08:31:09;;;;;;;5.50;2.53;;;;;;;29.29;46.53;100142.38;6263667;28;20080;-71
2023/06/20 08:34:10;;;;;;;4.20;2.13;;;;;;;29.44;45.57;100142.09;6273512;28;20055;-71
2023/06/20 08:37:11;;;;;;;3.05;2.47;;;;;;;29.50;46.71;100151.16;6270324;28;20056;-71
2023/06/20 08:40:14;;;;;;;2.85;2.40;;;;;;;29.26;47.57;100153.59;6304327;28;20048;-70
2023/06/20 08:43:18;;;;;;;3.08;2.17;;;;;;;29.52;46.36;100155.28;6293852;28;20487;-71
2023/06/20 08:46:20;;;;;;;3.60;2.25;;;;;;;29.63;43.50;100152.94;6293747;28;20044;-71
2023/06/20 08:49:21;;;;;;;3.38;2.40;;;;;;;29.59;41.10;100144.50;6295240;28;20477;-71
2023/06/20 08:52:28;;;;;;;3.38;2.05;;;;;;;29.81;41.49;100152.25;6294815;28;20083;-71
2023/06/20 09:07:38;;;;;;;4.18;2.30;;;;;;;29.68;44.32;100158.50;6289463;27;20379;-71
2023/06/20 09:10:39;;;;;;;3.60;1.98;;;;;;;30.05;41.17;100146.06;6287521;28;20488;-70
2023/06/20 09:13:41;;;;;;;;;;;;;;;30.18;41.62;100150.50;6289718;28;20048;-70
2023/06/20 09:16:42;;;;;;;3.50;2.35;;;;;;;29.78;39.45;100140.06;6289151;28;19921;-70
2023/06/20 09:19:45;;;;;;;2.78;2.15;;;;;;;30.37;44.33;100146.00;6288929;28;20044;-70
2023/06/20 09:22:46;;;;;;;3.47;2.30;;;;;;;30.48;41.25;100145.31;6287596;28;20055;-70
2023/06/20 09:25:46;;;;;;;3.40;1.98;;;;;;;30.15;40.83;100145.59;6288403;28;20396;-69
2023/06/20 09:28:47;;;;;;;2.35;1.95;;;;;;;30.47;40.37;100145.50;6285157;28;20045;-70
2023/06/20 09:31:49;;;;;;;3.00;2.47;;;;;;;29.59;39.69;100141.81;6287695;28;20052;-70
2023/06/20 09:34:51;;;;;;;4.10;2.40;;;;;;;30.48;38.39;100142.59;6288092;28;20471;-70
2023/06/20 09:37:54;;;;;;;3.22;2.35;;;;;;;30.91;38.52;100139.06;6286976;28;20063;-70
2023/06/20 09:40:55;;;;;;;2.83;2.28;;;;;;;30.90;38.13;100140.09;6288396;28;20393;-70
2023/06/20 09:43:56;;;;;;;3.42;2.03;;;;;;;30.87;38.54;100142.41;6287320;28;20079;-70
2023/06/20 09:46:57;;;;;;;2.67;2.20;;;;;;;29.93;41.17;100129.00;6286932;28;20068;-70
2023/06/20 09:50:00;;;;;;;2.40;2.20;;;;;;;30.61;42.00;100135.44;6287170;28;20551;-70
2023/06/20 09:53:09;;;;;;;2.53;2.10;;;;;;;30.88;39.56;100136.00;6288116;28;20084;-70
2023/06/20 09:56:11;;;;;;;5.85;2.17;;;;;;;31.16;39.88;100131.94;6286932;28;20215;-70
2023/06/20 09:59:14;;;;;;;6.68;2.42;;;;;;;30.89;39.08;100133.09;6286601;28;20411;-70
2023/06/20 10:02:18;;;;;;;3.05;2.17;;;;;;;31.30;37.57;100119.94;6287651;28;20044;-70
2023/06/20 10:05:20;;;;;;;5.05;2.80;;;;;;;30.91;37.50;100125.59;6286300;28;20052;-70
2023/06/20 10:08:22;;;;;;;2.97;2.20;;;;;;;31.28;38.30;100122.03;6271157;28;20059;-70
2023/06/20 10:11:27;;;;;;;3.83;2.30;;;;;;;31.63;38.77;100127.56;6271372;28;20140;-70
2023/06/20 10:14:31;;;;;;;2.58;2.13;;;;;;;31.04;36.86;100137.25;6271219;28;20063;-71
2023/06/20 10:17:39;;;;;;;4.05;2.42;;;;;;;31.63;38.77;100134.81;6271367;28;20045;-70
2023/06/20 10:20:39;;;;;;;3.97;2.63;;;;;;;31.09;39.38;100140.09;6271166;28;20049;-70
2023/06/20 10:23:41;;;;;;;4.25;2.35;;;;;;;31.85;35.57;100137.81;6269936;28;20128;-70
2023/06/20 10:26:41;;;;;;;;;;;;;;;31.83;36.52;100139.91;6270301;28;20048;-70
2023/06/20 10:29:42;;;;;;;3.85;2.40;;;;;;;32.22;36.39;100138.47;6269618;28;19921;-70
2023/06/20 10:33:11;;;;;;;3.60;2.22;;;;;;;31.34;38.13;100129.22;6269383;28;20044;-70
2023/06/20 10:36:12;;;;;;;3.08;2.13;;;;;;;31.75;38.78;100138.38;6268928;28;20051;-70
2023/06/20 10:39:14;;;;;;;3.90;2.30;;;;;;;32.18;37.04;100131.88;6270741;28;20072;-70
2023/06/20 10:42:38;;;;;;;2.92;2.30;;;;;;;32.74;37.66;100135.06;6268980;28;20049;-70
2023/06/20 10:45:51;;;;;;;5.47;2.22;;;;;;;32.61;36.33;100125.31;6263344;28;20045;-70
2023/06/20 10:48:51;;;;;;;2.42;2.15;;;;;;;32.71;37.11;100132.81;6267584;28;20102;-69
2023/06/20 10:51:57;;;;;;;;;;;;;;;32.69;36.61;100126.84;6269500;28;20093;-70
2023/06/20 10:54:59;;;;;;;3.78;2.38;;;;;;;32.66;37.79;100130.84;6268368;28;20009;-71
2023/06/20 10:58:00;;;;;;;3.35;2.40;;;;;;;31.14;38.95;100116.00;6267711;28;20397;-70
2023/06/20 11:01:00;;;;;;;;;;;;;;;29.75;39.65;100124.34;6269105;28;20464;-71
2023/06/20 11:04:05;;;;;;;2.37;2.10;;;;;;;31.01;38.78;100113.44;6269486;28;20315;-70
2023/06/20 11:07:06;;;;;;;3.58;2.20;;;;;;;31.67;36.73;100117.13;6269048;28;20115;-70
2023/06/20 11:10:14;;;;;;;;;;;;;;;32.25;37.84;100115.59;6270127;28;20468;-71
2023/06/20 11:13:15;;;;;;;2.55;1.95;;;;;;;31.25;37.43;100120.59;6257870;28;20012;-71
2023/06/20 11:16:19;;;;;;;;;;;;;;;31.53;37.86;100113.81;6251201;28;20404;-70
2023/06/20 11:19:26;;;;;;;3.97;2.20;;;;;;;31.86;38.25;100107.09;6250564;28;20453;-71
2023/06/20 11:22:27;;;;;;;3.15;2.25;;;;;;;31.47;36.62;100103.97;6250690;28;20060;-70
2023/06/20 11:25:29;;;;;;;;;;;;;;;31.56;36.79;100102.56;6253908;28;20531;-70
2023/06/20 11:28:31;;;;;;;3.05;2.22;;;;;;;31.45;35.93;100101.47;6250173;28;20177;-70
2023/06/20 11:31:32;;;;;;;2.60;2.40;;;;;;;31.31;38.62;100098.13;6250432;28;20207;-70
2023/06/20 11:34:33;;;;;;;2.40;2.20;;;;;;;32.40;35.37;100104.31;6248156;28;20129;-69
2023/06/20 11:37:34;;;;;;;;;;;;;;;32.59;37.63;100099.63;6250262;28;20061;-70
2023/06/20 11:40:38;;;;;;;3.33;2.17;;;;;;;32.95;35.76;100103.88;6250690;28;19925;-70
2023/06/20 11:43:43;;;;;;;2.58;2.20;;;;;;;31.87;32.33;100096.03;6250073;28;20299;-70
2023/06/20 11:46:49;;;;;;;2.17;1.98;;;;;;;32.11;34.89;100102.31;6250518;28;20113;-70
2023/06/20 11:49:56;;;;;;;3.78;2.28;;;;;;;33.03;35.35;100091.84;6247618;28;20052;-70
2023/06/20 11:52:57;;;;;;;;;;;;;;;33.17;36.61;100095.94;6243025;28;20053;-70
2023/06/20 11:56:02;;;;;;;2.15;1.80;;;;;;;32.97;33.26;100100.91;6243837;28;19925;-70
2023/06/20 11:59:03;;;;;;;3.20;2.45;;;;;;;32.51;35.23;100090.81;6243514;28;20501;-70
2023/06/20 12:02:11;;;;;;;;;;;;;;;33.04;34.09;100090.78;6242788;28;20048;-71
2023/06/20 12:05:18;;;;;;;2.65;2.00;;;;;;;32.23;31.49;100096.13;6244017;28;19921;-70
2023/06/20 12:08:19;;;;;;;;;;;;;;;32.42;33.81;100097.63;6243284;28;20053;-70
2023/06/20 12:11:22;;;;;;;3.23;2.37;;;;;;;33.00;36.19;100097.75;6244483;28;19921;-70
2023/06/20 12:14:24;;;;;;;3.88;2.15;;;;;;;33.11;35.87;100086.09;6243943;28;20085;-70
2023/06/20 12:17:25;;;;;;;1.98;1.80;;;;;;;33.56;32.56;100085.25;6243943;28;20413;-70
2023/06/20 12:20:25;;;;;;;;;;;;;;;33.32;32.71;100087.31;6244605;28;20045;-70
2023/06/20 12:23:26;;;;;;;3.80;2.30;;;;;;;32.79;33.27;100080.31;6243888;28;19921;-70
2023/06/20 12:26:27;;;;;;;3.28;2.20;;;;;;;33.50;34.16;100078.97;6243639;28;20049;-70
2023/06/20 12:29:27;;;;;;;;;;;;;;;33.07;31.66;100072.22;6243084;28;20108;-70
2023/06/20 12:32:28;;;;;;;3.30;2.03;;;;;;;32.28;32.94;100075.44;6242520;28;19928;-70
2023/06/20 12:35:31;;;;;;;2.92;2.40;;;;;;;32.49;32.58;100075.88;6243754;28;20065;-70
2023/06/20 12:38:32;;;;;;;5.28;2.28;;;;;;;32.36;33.66;100076.97;6243776;28;20060;-70
2023/06/20 12:41:33;;;;;;;;;;;;;;;31.90;34.50;100084.00;6242925;28;20092;-70
2023/06/20 12:44:34;;;;;;;3.00;2.22;;;;;;;31.72;34.21;100077.63;6243716;28;20016;-71
2023/06/20 12:47:35;;;;;;;;;;;;;;;31.98;33.36;100075.56;6248206;28;20045;-71
2023/06/20 12:50:44;;;;;;;2.50;2.10;;;;;;;31.80;33.71;100067.56;6267452;28;19928;-70
2023/06/20 12:53:49;;;;;;;2.60;2.08;;;;;;;32.47;36.86;100072.59;6267605;28;20083;-70
2023/06/20 12:56:49;;;;;;;3.22;2.20;;;;;;;32.66;33.93;100071.41;6266309;28;20500;-70
2023/06/20 12:59:50;;;;;;;;;;;;;;;32.47;32.80;100069.88;6267709;28;20040;-70
2023/06/20 13:02:54;;;;;;;2.67;2.30;;;;;;;33.11;33.58;100072.56;6266211;28;20012;-70
2023/06/20 13:05:54;;;;;;;8.25;2.60;;;;;;;33.02;34.45;100066.72;6267420;28;20103;-70
2023/06/20 13:08:55;;;;;;;;;;;;;;;33.24;34.63;100075.00;6267708;28;20425;-70
2023/06/20 13:11:56;;;;;;;5.07;2.17;;;;;;;32.99;34.21;100061.81;6267535;28;20047;-70
2023/06/20 13:14:57;;;;;;;2.47;2.20;;;;;;;32.37;32.13;100066.97;6266142;28;20048;-71
2023/06/20 13:18:01;;;;;;;2.90;2.33;;;;;;;32.80;33.85;100069.28;6267118;28;20049;-70
2023/06/20 13:21:05;;;;;;;2.72;2.33;;;;;;;32.86;33.92;100052.06;6267436;28;20437;-71
2023/06/20 13:24:08;;;;;;;3.20;2.60;;;;;;;32.80;35.20;100066.56;6266164;28;20049;-70
2023/06/20 13:27:13;;;;;;;4.43;2.35;;;;;;;32.50;34.49;100067.53;6265747;28;20048;-70
2023/06/20 13:30:17;;;;;;;3.55;2.33;;;;;;;32.82;33.65;100061.72;6263448;28;20084;-71
2023/06/20 13:33:18;;;;;;;2.88;2.47;;;;;;;32.28;32.88;100067.34;6266921;28;20099;-70
2023/06/20 13:36:24;;;;;;;;;;;;;;;32.45;33.64;100062.06;6266274;28;20444;-70
2023/06/20 13:39:30;;;;;;;2.88;2.30;;;;;;;31.81;33.62;100064.59;6267231;28;19956;-70
2023/06/20 13:42:30;;;;;;;3.20;2.35;;;;;;;32.37;34.09;100059.72;6269238;28;20045;-70
2023/06/20 13:45:32;;;;;;;;;;;;;;;32.82;35.01;100055.50;6271030;28;20164;-70
2023/06/20 13:48:32;;;;;;;3.13;2.25;;;;;;;32.83;34.20;100049.06;6270444;28;19925;-69
2023/06/20 13:51:33;;;;;;;;;;;;;;;32.93;34.25;100051.97;6270562;28;20072;-70
2023/06/20 13:54:34;;;;;;;3.43;2.40;;;;;;;32.64;36.09;100060.03;6270284;28;20364;-70
2023/06/20 13:57:34;;;;;;;;;;;;;;;32.66;36.21;100052.53;6270550;28;20063;-70
2023/06/20 14:00:38;;;;;;;3.30;2.23;;;;;;;32.00;35.31;100057.28;6271708;28;19967;-70
2023/06/20 14:03:39;;;;;;;2.95;2.45;;;;;;;32.62;36.16;100061.34;6271441;28;20107;-70
2023/06/20 14:06:40;;;;;;;;;;;;;;;32.59;32.99;100056.41;6271449;28;20489;-70
2023/06/20 14:09:40;;;;;;;3.00;2.33;;;;;;;32.53;38.33;100055.44;6269972;28;20400;-70
2023/06/20 14:12:43;;;;;;;;;;;;;;;32.44;33.91;100052.28;6270282;28;20049;-70
2023/06/20 14:15:47;;;;;;;2.80;2.17;;;;;;;32.23;33.50;100045.66;6270688;28;19927;-70
2023/06/20 14:18:48;;;;;;;3.03;2.53;;;;;;;32.22;34.03;100037.78;6270834;28;20103;-70
2023/06/20 14:21:49;;;;;;;;;;;;;;;32.33;34.90;100037.75;6270082;28;20049;-70
2023/06/20 14:24:50;;;;;;;2.83;2.50;;;;;;;32.22;32.76;100035.88;6269414;28;20155;-70
2023/06/20 14:27:50;;;;;;;;;;;;;;;32.39;34.02;100033.31;6271367;28;20560;-70
2023/06/20 14:30:52;;;;;;;3.08;2.30;;;;;;;31.90;33.59;100032.72;6270316;28;20276;-69
2023/06/20 14:33:52;;;;;;;;;;;;;;;31.77;33.24;100025.66;6270989;28;20060;-69